Time;durP1;ratioP1;P1;durP2;ratioP2;P2;SDS_P1;SDS_P2;PMS_P1;PMS_P2;Temp;Humidity;BMP_temperature;BMP_pressure;BME280_temperature;BME280_humidity;BME280_pressure;Samples;Min_cycle;Max_cycle;Signal;HPM_P1;HPM_P2
2022/04/02 00:00:21;;;;;;;5.28;2.88;;;;;;;0.51;76.43;101477.41;5118103;27;20032;-74
2022/04/02 00:02:46;;;;;;;8.40;3.40;;;;;;;0.52;75.97;101476.59;5115937;27;20446;-74
2022/04/02 00:05:12;;;;;;;4.60;3.17;;;;;;;0.56;75.62;101482.69;5131907;27;20031;-74
2022/04/02 00:07:37;;;;;;;4.65;3.25;;;;;;;0.53;76.20;101473.22;5132901;27;20456;-74
2022/04/02 00:10:05;;;;;;;7.47;2.92;;;;;;;0.55;76.03;101486.94;5132305;27;20019;-74
2022/04/02 00:12:31;;;;;;;4.95;3.30;;;;;;;0.54;76.07;101482.63;5132446;27;20030;-74
2022/04/02 00:14:56;;;;;;;6.13;3.00;;;;;;;0.56;75.77;101472.44;5113669;27;20110;-74
2022/04/02 00:17:22;;;;;;;4.28;2.90;;;;;;;0.58;76.70;101492.16;5110982;28;20932;-74
2022/04/02 00:19:48;;;;;;;6.13;3.42;;;;;;;0.56;76.62;101487.84;5111918;28;20028;-74
2022/04/02 00:22:13;;;;;;;5.18;2.72;;;;;;;0.55;76.42;101492.06;5112964;27;20076;-74
2022/04/02 00:24:38;;;;;;;5.88;2.90;;;;;;;0.54;76.67;101490.34;5111242;28;20486;-74
2022/04/02 00:27:04;;;;;;;8.57;3.72;;;;;;;0.55;76.37;101489.50;5112179;28;20046;-74
2022/04/02 00:29:29;;;;;;;6.10;3.30;;;;;;;0.55;77.01;101494.63;5111694;28;20032;-74
2022/04/02 00:31:54;;;;;;;7.38;3.50;;;;;;;0.51;75.85;101487.69;5111149;28;20020;-74
2022/04/02 00:34:19;;;;;;;7.55;3.20;;;;;;;0.55;75.68;101489.50;5114630;28;20031;-74
2022/04/02 00:36:45;;;;;;;5.22;2.50;;;;;;;0.52;75.14;101480.84;5127041;27;20481;-74
2022/04/02 00:39:10;;;;;;;4.20;2.85;;;;;;;0.52;75.30;101483.41;5111115;28;20042;-74
2022/04/02 00:41:36;;;;;;;4.40;2.90;;;;;;;0.52;75.00;101481.72;5118083;28;20015;-74
2022/04/02 00:44:12;;;;;;;4.65;2.78;;;;;;;0.54;74.57;101480.06;5124920;28;20100;-74
2022/04/02 00:46:40;;;;;;;8.07;3.20;;;;;;;0.53;75.11;101478.34;5117259;27;20022;-74
2022/04/02 00:49:06;;;;;;;4.10;2.72;;;;;;;0.52;74.35;101485.97;5114185;28;20052;-74
2022/04/02 00:51:32;;;;;;;5.57;3.30;;;;;;;0.50;74.89;101487.66;5128547;27;20027;-74
2022/04/02 00:53:58;;;;;;;6.05;3.30;;;;;;;0.51;74.94;101481.69;5111319;27;20154;-74
2022/04/02 00:56:23;;;;;;;6.22;2.75;;;;;;;0.46;74.00;101481.56;5111454;28;20032;-74
2022/04/02 00:58:49;;;;;;;5.50;3.10;;;;;;;0.47;74.89;101485.88;5115351;28;20036;-74
2022/04/02 01:01:15;;;;;;;6.75;2.75;;;;;;;0.46;74.76;101486.72;5111848;28;20032;-75
2022/04/02 01:03:40;;;;;;;4.22;2.80;;;;;;;0.45;77.03;101487.50;5119174;27;20023;-74
2022/04/02 01:06:08;;;;;;;4.50;2.95;;;;;;;0.42;74.33;101484.84;5136554;27;20035;-74
2022/04/02 01:08:33;;;;;;;5.43;3.28;;;;;;;0.46;75.63;101485.00;5130209;27;20049;-74
2022/04/02 01:10:59;;;;;;;6.18;2.85;;;;;;;0.46;75.34;101482.44;5120158;27;20023;-74
2022/04/02 01:13:25;;;;;;;5.47;3.30;;;;;;;0.46;75.45;101479.88;5134697;27;20035;-74
2022/04/02 01:15:51;;;;;;;4.63;3.15;;;;;;;0.47;77.21;101488.44;5132260;27;20046;-74
2022/04/02 01:18:16;;;;;;;5.63;3.50;;;;;;;0.48;74.58;101485.03;5121640;27;20407;-74
2022/04/02 01:20:41;;;;;;;5.95;2.90;;;;;;;0.49;75.11;101488.47;5116735;27;20031;-74
2022/04/02 01:23:08;;;;;;;3.65;2.47;;;;;;;0.48;75.37;101479.91;5120134;27;20027;-74
2022/04/02 01:25:34;;;;;;;4.22;3.00;;;;;;;0.45;76.00;101484.94;5115104;28;20016;-74
2022/04/02 01:28:00;;;;;;;4.78;2.90;;;;;;;0.41;76.89;101493.38;5114518;28;20364;-74
2022/04/02 01:30:27;;;;;;;6.00;3.05;;;;;;;0.37;76.15;101491.56;5133579;27;20075;-74
2022/04/02 01:32:53;;;;;;;5.50;2.70;;;;;;;0.32;74.63;101485.44;5135198;27;20074;-74
2022/04/02 01:35:21;;;;;;;6.20;3.10;;;;;;;0.33;76.00;101489.75;5125708;27;20066;-74
2022/04/02 01:37:47;;;;;;;8.18;3.45;;;;;;;0.30;75.93;101490.53;5114780;28;20024;-74
2022/04/02 01:40:13;;;;;;;7.55;3.05;;;;;;;0.29;75.55;101487.91;5118493;27;20023;-74
2022/04/02 01:42:38;;;;;;;5.40;3.00;;;;;;;0.29;75.64;101482.78;5115421;27;20026;-74
2022/04/02 01:45:04;;;;;;;5.30;3.30;;;;;;;0.28;76.05;101481.03;5126145;27;20024;-74
2022/04/02 01:47:30;;;;;;;5.95;2.88;;;;;;;0.28;76.08;101476.78;5134183;27;20467;-74
2022/04/02 01:49:55;;;;;;;4.45;2.80;;;;;;;0.28;76.44;101481.03;5110420;27;20050;-74
2022/04/02 01:52:21;;;;;;;4.65;2.80;;;;;;;0.28;75.06;101489.59;5127449;27;20058;-74
2022/04/02 01:54:47;;;;;;;5.47;2.65;;;;;;;0.28;74.64;101491.31;5103531;27;20035;-74
2022/04/02 01:57:14;;;;;;;4.90;2.45;;;;;;;0.26;73.37;101492.94;5093384;28;20063;-74
2022/04/02 01:59:40;;;;;;;4.13;2.65;;;;;;;0.28;74.55;101491.31;5112636;27;20470;-74
2022/04/02 02:02:07;;;;;;;4.90;2.95;;;;;;;0.28;74.15;101493.88;5095141;28;20027;-74
2022/04/02 02:04:33;;;;;;;5.22;2.70;;;;;;;0.27;75.27;101499.81;5123056;27;20034;-74
2022/04/02 02:06:59;;;;;;;4.75;2.90;;;;;;;0.29;74.87;101505.84;5115546;27;20028;-74
2022/04/02 02:09:24;;;;;;;5.45;2.70;;;;;;;0.26;74.63;101506.63;5123207;27;20107;-74
2022/04/02 02:11:49;;;;;;;5.05;3.08;;;;;;;0.23;75.17;101499.75;5126748;27;20055;-74
2022/04/02 02:14:14;;;;;;;5.15;2.53;;;;;;;0.20;74.98;101497.09;5121363;27;20089;-74
2022/04/02 02:16:40;;;;;;;4.30;2.58;;;;;;;0.22;73.35;101494.53;5117372;27;20489;-74
2022/04/02 02:19:05;;;;;;;4.85;2.97;;;;;;;0.18;74.20;101506.41;5134826;27;20027;-74
2022/04/02 02:21:30;;;;;;;4.57;2.83;;;;;;;0.16;73.88;101502.06;5119285;27;20034;-74
2022/04/02 02:23:56;;;;;;;5.70;2.80;;;;;;;0.12;75.84;101500.22;5113256;28;20096;-74
2022/04/02 02:26:22;;;;;;;4.65;3.22;;;;;;;0.09;75.16;101503.56;5113903;28;20106;-74
2022/04/02 02:28:48;;;;;;;6.40;2.90;;;;;;;0.05;75.32;101500.88;5113759;27;20107;-74
2022/04/02 02:31:13;;;;;;;4.47;2.92;;;;;;;0.04;74.80;101504.28;5115658;27;20379;-74
2022/04/02 02:36:23;;;;;;;5.70;2.80;;;;;;;0.02;74.36;101508.47;5114910;27;20043;-74
2022/04/02 02:38:48;;;;;;;3.85;2.35;;;;;;;0.03;74.75;101515.34;5126337;27;20039;-74
2022/04/02 02:41:14;;;;;;;7.45;2.80;;;;;;;0.03;74.62;101517.91;5125545;27;20479;-74
2022/04/02 02:43:39;;;;;;;5.00;2.83;;;;;;;0.02;75.51;101519.59;5128239;27;20531;-74
2022/04/02 02:46:05;;;;;;;6.47;2.90;;;;;;;0.04;74.43;101523.09;5113336;27;20037;-74
2022/04/02 02:48:30;;;;;;;4.32;2.65;;;;;;;0.02;74.53;101519.59;5125469;27;20048;-74
2022/04/02 02:50:56;;;;;;;6.32;2.72;;;;;;;0.05;73.95;101512.00;5132099;27;20057;-74
2022/04/02 02:53:21;;;;;;;3.35;2.40;;;;;;;0.05;73.89;101518.81;5120137;27;20107;-74
2022/04/02 02:55:48;;;;;;;4.32;2.47;;;;;;;0.05;74.25;101524.81;5116567;27;20410;-74
2022/04/02 02:58:14;;;;;;;5.57;2.63;;;;;;;0.04;74.25;101528.22;5133866;27;20122;-74
2022/04/02 03:00:40;;;;;;;4.85;2.65;;;;;;;0.05;73.71;101522.25;5132983;27;20031;-74
2022/04/02 03:03:06;;;;;;;5.78;2.90;;;;;;;0.03;74.25;101525.59;5133550;27;20026;-74
2022/04/02 03:05:32;;;;;;;5.13;2.63;;;;;;;-0.02;74.92;101523.75;5119077;27;20410;-74
2022/04/02 03:07:57;;;;;;;4.47;3.08;;;;;;;-0.01;74.81;101529.75;5133080;27;20072;-74
2022/04/02 03:10:25;;;;;;;4.90;3.13;;;;;;;-0.04;74.50;101520.28;5117232;27;20521;-74
2022/04/02 03:12:51;;;;;;;4.35;2.78;;;;;;;-0.08;74.86;101523.56;5113157;28;20107;-74
2022/04/02 03:15:20;;;;;;;4.57;2.33;;;;;;;-0.12;75.30;101518.31;5115656;27;20106;-74
2022/04/02 03:17:47;;;;;;;4.53;2.60;;;;;;;-0.13;74.64;101526.81;5112965;28;20023;-74
2022/04/02 03:20:14;;;;;;;4.78;2.50;;;;;;;-0.14;74.67;101517.38;5114089;27;20037;-73
2022/04/02 03:22:41;;;;;;;3.90;2.50;;;;;;;-0.12;75.28;101526.88;5125574;27;20046;-74
2022/04/02 03:25:11;;;;;;;4.43;2.60;;;;;;;-0.14;74.90;101528.50;5115513;27;20074;-74
2022/04/02 03:27:38;;;;;;;3.70;2.67;;;;;;;-0.17;75.47;101525.84;5112190;28;20034;-74
2022/04/02 03:30:05;;;;;;;7.13;2.88;;;;;;;-0.19;76.00;101530.06;5113073;28;20393;-74
2022/04/02 03:32:31;;;;;;;4.20;2.40;;;;;;;-0.18;75.83;101530.94;5114904;27;20032;-74
2022/04/02 03:34:57;;;;;;;6.32;2.28;;;;;;;-0.16;74.64;101529.31;5111996;28;20028;-74
2022/04/02 03:37:24;;;;;;;4.63;2.60;;;;;;;-0.16;75.46;101531.88;5116901;27;20382;-74
2022/04/02 03:39:49;;;;;;;6.55;2.63;;;;;;;-0.12;75.48;101532.00;5117622;27;20035;-74
2022/04/02 03:42:15;;;;;;;4.38;2.47;;;;;;;-0.13;75.35;101526.81;5111935;28;20016;-74
2022/04/02 03:44:40;;;;;;;5.40;2.80;;;;;;;-0.14;75.54;101527.63;5113456;27;20034;-73
2022/04/02 03:47:09;;;;;;;3.45;2.15;;;;;;;-0.15;75.79;101531.03;5112801;28;20024;-74
2022/04/02 03:49:36;;;;;;;6.35;2.63;;;;;;;-0.12;74.61;101533.69;5130075;27;20047;-74
2022/04/02 03:52:01;;;;;;;9.02;2.75;;;;;;;-0.12;73.43;101537.13;5128148;27;20051;-74
2022/04/02 03:54:27;;;;;;;5.07;2.65;;;;;;;-0.12;74.06;101538.81;5122521;27;20092;-74
2022/04/02 03:56:52;;;;;;;3.85;2.35;;;;;;;-0.11;74.86;101545.69;5132209;27;20055;-74
2022/04/02 03:59:18;;;;;;;4.22;2.70;;;;;;;-0.15;75.42;101547.28;5117708;27;20057;-74
2022/04/02 04:01:44;;;;;;;5.45;2.50;;;;;;;-0.20;76.04;101535.13;5117721;27;20386;-74
2022/04/02 04:04:11;;;;;;;7.65;2.83;;;;;;;-0.19;75.65;101542.88;5131776;27;20444;-74
2022/04/02 04:06:37;;;;;;;4.45;2.60;;;;;;;-0.19;75.90;101549.72;5119555;27;20360;-74
2022/04/02 04:09:03;;;;;;;3.67;2.75;;;;;;;-0.24;76.52;101544.41;5111078;28;20039;-74
2022/04/02 04:11:28;;;;;;;5.18;2.67;;;;;;;-0.25;76.54;101553.81;5124865;27;20092;-74
2022/04/02 04:13:59;;;;;;;5.03;2.70;;;;;;;-0.27;77.01;101554.56;5130693;27;20054;-74
2022/04/02 04:16:24;;;;;;;8.25;3.00;;;;;;;-0.28;76.31;101551.13;5127357;27;20466;-74
2022/04/02 04:18:50;;;;;;;5.90;3.00;;;;;;;-0.29;77.39;101556.22;5111926;28;20031;-73
2022/04/02 04:21:15;;;;;;;5.28;2.92;;;;;;;-0.30;76.73;101563.03;5106582;28;20056;-74
2022/04/02 04:23:44;;;;;;;6.35;3.08;;;;;;;-0.31;76.87;101566.41;5111138;28;20031;-74
2022/04/02 04:26:09;;;;;;;6.20;2.88;;;;;;;-0.30;76.86;101559.59;5092439;28;20034;-74
2022/04/02 04:28:36;;;;;;;4.65;3.08;;;;;;;-0.37;76.65;101550.84;5091764;28;20028;-74
2022/04/02 04:31:02;;;;;;;4.97;2.78;;;;;;;-0.33;76.76;101555.25;5092137;28;20036;-74
2022/04/02 04:33:28;;;;;;;6.13;3.25;;;;;;;-0.31;76.64;101552.75;5094827;28;20031;-74
2022/04/02 04:35:53;;;;;;;6.50;3.15;;;;;;;-0.32;75.58;101559.56;5101102;28;20020;-74
2022/04/02 04:38:18;;;;;;;7.15;3.15;;;;;;;-0.37;76.08;101550.84;5111517;28;20055;-74
2022/04/02 04:40:43;;;;;;;6.18;2.92;;;;;;;-0.33;75.18;101559.50;5110296;28;20051;-74
2022/04/02 04:43:09;;;;;;;5.13;2.63;;;;;;;-0.32;76.64;101566.38;5096056;28;20032;-73
2022/04/02 04:45:34;;;;;;;6.43;2.90;;;;;;;-0.34;76.22;101568.88;5108727;28;20395;-73
2022/04/02 04:47:59;;;;;;;5.43;2.80;;;;;;;-0.34;76.16;101570.56;5115874;28;20047;-74
2022/04/02 04:50:26;;;;;;;4.75;2.85;;;;;;;-0.37;76.32;101583.28;5113727;27;20034;-74
2022/04/02 04:52:52;;;;;;;5.65;3.42;;;;;;;-0.39;76.71;101592.59;5094782;28;20047;-74
2022/04/02 04:55:17;;;;;;;7.47;2.85;;;;;;;-0.42;77.31;101595.94;5099412;28;20187;-74
2022/04/02 04:57:42;;;;;;;5.10;2.70;;;;;;;-0.46;77.06;101596.66;5098590;28;20035;-73
2022/04/02 05:00:08;;;;;;;7.07;2.92;;;;;;;-0.51;77.78;101600.75;5099670;28;20492;-73
2022/04/02 05:02:35;;;;;;;5.07;2.60;;;;;;;-0.54;76.86;101603.22;5117284;27;20035;-73
2022/04/02 05:05:00;;;;;;;4.50;2.75;;;;;;;-0.58;76.35;101601.38;5115523;28;20020;-73
2022/04/02 05:07:26;;;;;;;4.93;3.05;;;;;;;-0.58;77.66;101609.06;5115950;27;20023;-73
2022/04/02 05:09:52;;;;;;;4.75;2.78;;;;;;;-0.59;76.90;101605.63;5115616;28;20052;-74
2022/04/02 05:12:18;;;;;;;5.13;2.90;;;;;;;-0.60;76.58;101603.00;5129326;27;20562;-74
2022/04/02 05:14:43;;;;;;;4.57;2.88;;;;;;;-0.57;77.59;101608.22;5134619;27;20035;-74
2022/04/02 05:17:09;;;;;;;4.97;2.78;;;;;;;-0.58;77.13;101611.63;5135915;27;20462;-74
2022/04/02 05:19:34;;;;;;;5.00;2.80;;;;;;;-0.56;76.61;101615.94;5133192;27;20035;-74
2022/04/02 05:22:01;;;;;;;4.93;2.53;;;;;;;-0.53;76.54;101617.75;5117423;27;20360;-73
2022/04/02 05:24:26;;;;;;;6.65;2.50;;;;;;;-0.53;76.48;101621.19;5114913;27;20031;-73
2022/04/02 05:26:52;;;;;;;4.50;2.30;;;;;;;-0.52;76.30;101617.81;5123364;27;20067;-73
2022/04/02 05:29:17;;;;;;;4.93;2.42;;;;;;;-0.47;75.50;101628.22;5134008;27;20026;-73
2022/04/02 05:31:43;;;;;;;5.18;2.60;;;;;;;-0.45;75.43;101629.16;5135167;27;20027;-73
2022/04/02 05:34:09;;;;;;;5.85;2.60;;;;;;;-0.41;75.59;101638.69;5124146;27;20027;-73
2022/04/02 05:36:35;;;;;;;5.22;2.90;;;;;;;-0.35;75.20;101641.44;5121538;27;20019;-73
2022/04/02 05:39:01;;;;;;;3.90;2.63;;;;;;;-0.30;74.62;101644.16;5135615;27;20046;-73
2022/04/02 05:41:26;;;;;;;4.13;2.60;;;;;;;-0.27;75.14;101642.56;5133491;27;20482;-73
2022/04/02 05:43:52;;;;;;;4.43;2.60;;;;;;;-0.25;74.83;101646.06;5122705;27;20035;-73
2022/04/02 05:46:17;;;;;;;5.68;3.42;;;;;;;-0.20;74.55;101656.44;5133056;27;20065;-73
2022/04/02 05:48:42;;;;;;;6.35;2.70;;;;;;;-0.17;74.51;101655.69;5118553;27;20035;-73
2022/04/02 05:51:09;;;;;;;5.63;2.60;;;;;;;-0.16;74.92;101660.00;5116023;27;20038;-73
2022/04/02 05:53:34;;;;;;;4.53;2.70;;;;;;;-0.14;75.05;101668.59;5114923;28;20043;-73
2022/04/02 05:56:01;;;;;;;4.20;2.50;;;;;;;-0.15;74.50;101664.31;5127127;27;20085;-73
2022/04/02 05:58:26;;;;;;;3.97;2.38;;;;;;;-0.10;74.95;101661.09;5133346;27;20076;-73
2022/04/02 06:00:52;;;;;;;5.65;3.00;;;;;;;-0.06;73.88;101665.50;5123392;27;20023;-74
2022/04/02 06:03:19;;;;;;;6.47;2.80;;;;;;;0.00;73.71;101669.94;5113600;28;20062;-73
2022/04/02 06:05:45;;;;;;;5.55;2.85;;;;;;;0.04;74.72;101682.03;5131206;27;20080;-73
2022/04/02 06:08:10;;;;;;;4.60;2.63;;;;;;;0.10;74.03;101682.25;5118092;27;20039;-73
2022/04/02 06:10:35;;;;;;;4.63;2.78;;;;;;;0.15;74.00;101674.69;5113931;27;20024;-73
2022/04/02 06:13:01;;;;;;;6.38;2.75;;;;;;;0.19;74.29;101687.66;5114234;28;20031;-73
2022/04/02 06:15:27;;;;;;;4.72;2.83;;;;;;;0.22;74.44;101681.75;5114222;28;20483;-73
2022/04/02 06:17:53;;;;;;;5.75;3.10;;;;;;;0.26;75.01;101685.28;5113414;27;20027;-73
2022/04/02 06:20:18;;;;;;;7.78;2.97;;;;;;;0.28;74.01;101687.09;5114060;28;20034;-73
2022/04/02 06:22:43;;;;;;;5.72;2.70;;;;;;;0.30;74.61;101690.59;5113917;27;20081;-73
2022/04/02 06:25:09;;;;;;;3.78;2.75;;;;;;;0.32;73.98;101683.78;5114816;27;20023;-73
2022/04/02 06:27:45;;;;;;;5.35;2.80;;;;;;;0.39;73.25;101696.00;5114154;28;20382;-73
2022/04/02 06:30:13;;;;;;;6.63;2.83;;;;;;;0.40;74.13;101691.75;5114339;27;20021;-73
2022/04/02 06:32:38;;;;;;;5.90;2.88;;;;;;;0.41;73.98;101696.91;5132942;27;20027;-73
2022/04/02 06:35:05;;;;;;;4.75;3.10;;;;;;;0.47;74.29;101701.38;5132450;27;20428;-73
2022/04/02 06:37:33;;;;;;;5.72;3.20;;;;;;;0.50;73.51;101708.31;5133849;27;20408;-74
2022/04/02 06:39:59;;;;;;;5.38;3.05;;;;;;;0.51;73.78;101704.91;5133962;27;20463;-73
2022/04/02 06:42:24;;;;;;;6.80;3.17;;;;;;;0.54;73.54;101711.00;5124523;27;20024;-73
2022/04/02 06:44:49;;;;;;;6.13;3.03;;;;;;;0.56;73.36;101709.38;5114073;27;20480;-74
2022/04/02 06:47:14;;;;;;;5.82;2.78;;;;;;;0.61;72.59;101712.06;5123216;27;20047;-73
2022/04/02 06:49:40;;;;;;;5.85;2.90;;;;;;;0.65;72.51;101719.03;5127749;27;20048;-73
2022/04/02 06:52:06;;;;;;;6.63;3.28;;;;;;;0.68;72.84;101725.13;5116932;27;20050;-73
2022/04/02 06:54:31;;;;;;;4.95;2.70;;;;;;;0.70;73.07;101723.47;5113419;28;20024;-74
2022/04/02 06:56:57;;;;;;;6.72;3.03;;;;;;;0.75;72.42;101727.88;5113344;28;20064;-73
2022/04/02 06:59:22;;;;;;;7.72;2.78;;;;;;;0.78;71.71;101723.72;5113610;27;20023;-73
2022/04/02 07:01:48;;;;;;;5.15;3.17;;;;;;;0.80;72.94;101732.34;5112497;28;20028;-73
2022/04/02 07:04:13;;;;;;;5.75;3.90;;;;;;;0.84;72.75;101738.44;5114654;27;20474;-73
2022/04/02 07:06:44;;;;;;;8.25;3.15;;;;;;;0.87;72.63;101736.81;5113503;27;20167;-74
2022/04/02 07:09:09;;;;;;;6.28;2.80;;;;;;;0.89;71.66;101742.03;5117231;27;20027;-73
2022/04/02 07:11:34;;;;;;;6.03;3.20;;;;;;;0.89;72.29;101749.72;5132120;27;20364;-73
2022/04/02 07:14:00;;;;;;;7.50;3.15;;;;;;;0.95;72.27;101747.34;5130948;27;20527;-73
2022/04/02 07:16:27;;;;;;;5.75;3.20;;;;;;;1.01;71.03;101750.06;5116480;27;20031;-73
2022/04/02 07:18:53;;;;;;;6.97;2.95;;;;;;;1.08;71.23;101746.88;5126903;27;20026;-73
2022/04/02 07:21:20;;;;;;;4.75;2.80;;;;;;;1.14;72.15;101756.44;5120848;27;20032;-74
2022/04/02 07:23:46;;;;;;;4.57;2.67;;;;;;;1.21;71.47;101754.94;5113006;28;20100;-73
2022/04/02 07:26:12;;;;;;;4.50;2.85;;;;;;;1.25;70.72;101764.50;5118140;27;20051;-73
2022/04/02 07:28:37;;;;;;;6.63;3.10;;;;;;;1.28;71.47;101767.16;5112680;28;20053;-74
2022/04/02 07:31:03;;;;;;;7.15;3.17;;;;;;;1.25;70.50;101757.66;5112972;28;20027;-73
2022/04/02 07:33:28;;;;;;;5.65;3.00;;;;;;;1.31;70.87;101765.53;5111972;28;20027;-73
2022/04/02 07:36:32;;;;;;;8.27;3.30;;;;;;;1.38;71.22;101769.16;5121510;27;20023;-73
2022/04/02 07:39:03;;;;;;;4.80;2.60;;;;;;;1.44;71.00;101768.44;5107016;27;20031;-73
2022/04/02 07:42:01;;;;;;;8.52;3.22;;;;;;;1.52;71.12;101775.56;5112729;27;20106;-73
2022/04/02 07:44:31;;;;;;;5.07;3.03;;;;;;;1.61;70.06;101780.97;5117191;27;20019;-74
2022/04/02 07:46:58;;;;;;;7.75;3.15;;;;;;;1.69;70.13;101788.00;5132884;27;20226;-74
2022/04/02 07:49:27;;;;;;;6.20;3.10;;;;;;;1.77;70.12;101782.25;5117593;27;20495;-73
2022/04/02 07:51:54;;;;;;;4.53;3.17;;;;;;;1.88;69.92;101795.41;5109873;27;20474;-73
2022/04/02 07:54:25;;;;;;;5.68;2.75;;;;;;;1.99;69.51;101793.13;5129909;27;20031;-74
2022/04/02 07:56:56;;;;;;;6.85;3.00;;;;;;;2.08;68.25;101788.22;5124609;27;20038;-73
2022/04/02 07:59:30;;;;;;;4.57;2.88;;;;;;;2.17;68.62;101792.75;5112571;27;20037;-73
2022/04/02 08:01:56;;;;;;;5.28;3.38;;;;;;;2.26;68.71;101800.72;5118595;27;20155;-73
2022/04/02 08:04:24;;;;;;;9.30;3.63;;;;;;;2.34;67.63;101805.19;5101459;28;20142;-75
2022/04/02 08:06:52;;;;;;;4.00;3.28;;;;;;;2.33;67.88;101788.03;5097469;28;20110;-73
2022/04/02 08:09:19;;;;;;;4.70;3.28;;;;;;;2.37;68.43;101788.97;5107389;28;20036;-73
2022/04/02 08:11:48;;;;;;;5.75;3.03;;;;;;;2.44;67.20;101792.56;5109513;27;20540;-73
2022/04/02 08:14:14;;;;;;;5.60;3.63;;;;;;;2.52;67.68;101789.38;5098470;28;20134;-73
2022/04/02 08:16:43;;;;;;;7.07;3.03;;;;;;;2.56;68.18;101801.47;5099308;28;20107;-73
2022/04/02 08:19:09;;;;;;;6.68;3.33;;;;;;;2.65;67.31;101795.69;5108296;27;20031;-74
2022/04/02 08:21:35;;;;;;;6.78;3.25;;;;;;;2.73;67.43;101804.44;5114787;28;20028;-74
2022/04/02 08:24:02;;;;;;;6.13;3.65;;;;;;;2.85;67.13;101806.47;5108400;28;20031;-73
2022/04/02 08:26:43;;;;;;;7.68;3.90;;;;;;;2.91;67.78;101809.19;5111859;28;20047;-73
2022/04/02 08:29:28;;;;;;;7.28;3.67;;;;;;;2.87;66.93;101809.06;5129438;27;20077;-73
2022/04/02 08:32:12;;;;;;;4.65;3.38;;;;;;;2.87;66.69;101804.78;5132610;27;20102;-72
2022/04/02 08:34:53;;;;;;;6.93;3.42;;;;;;;2.78;67.52;101815.75;5131970;27;20019;-73
2022/04/02 08:37:37;;;;;;;5.53;3.55;;;;;;;2.85;67.64;101811.63;5124685;27;20042;-73
2022/04/02 08:40:09;;;;;;;5.22;3.17;;;;;;;2.92;66.35;101818.66;5091986;28;20039;-73
2022/04/02 08:42:52;;;;;;;7.43;3.47;;;;;;;3.01;67.53;101826.59;5097286;28;20081;-73
2022/04/02 08:45:32;;;;;;;6.47;4.07;;;;;;;3.10;65.99;101814.75;5120117;27;20038;-74
2022/04/02 08:48:22;;;;;;;6.45;3.97;;;;;;;3.23;64.91;101825.34;5112987;27;20102;-74
2022/04/02 08:50:54;;;;;;;6.97;4.05;;;;;;;3.34;66.11;101828.19;5131007;27;20036;-74
2022/04/02 08:53:31;;;;;;;5.55;3.55;;;;;;;3.41;65.76;101824.91;5128551;27;20458;-73
2022/04/02 08:56:06;;;;;;;6.93;3.90;;;;;;;3.44;65.00;101834.41;5111612;28;20104;-74
2022/04/02 08:59:06;;;;;;;8.73;4.00;;;;;;;3.34;65.76;101846.22;5125305;28;20068;-73
2022/04/02 09:01:39;;;;;;;9.25;3.78;;;;;;;3.31;66.08;101842.72;5130163;27;20502;-73
2022/04/02 09:04:37;;;;;;;5.70;3.63;;;;;;;3.42;66.29;101844.69;5114830;27;20027;-73
2022/04/02 09:07:37;;;;;;;7.72;3.90;;;;;;;3.52;66.52;101845.75;5112195;28;20046;-74
2022/04/02 09:10:11;;;;;;;8.43;4.55;;;;;;;3.57;65.48;101851.88;5111879;28;20047;-73
2022/04/02 09:12:58;;;;;;;6.57;3.90;;;;;;;3.70;64.56;101846.16;5111991;28;20020;-74
2022/04/02 09:15:59;;;;;;;7.85;4.60;;;;;;;3.89;65.71;101851.66;5112515;28;20028;-73
2022/04/02 09:18:39;;;;;;;8.55;4.75;;;;;;;4.17;64.69;101843.63;5120088;28;20106;-74
2022/04/02 09:21:27;;;;;;;7.15;4.55;;;;;;;4.27;64.95;101854.13;5120141;27;20027;-74
2022/04/02 09:24:11;;;;;;;7.85;4.20;;;;;;;4.48;63.19;101854.53;5112588;28;20027;-74
2022/04/02 09:27:25;;;;;;;8.63;4.93;;;;;;;4.53;63.53;101862.34;5114777;28;20062;-74
2022/04/02 09:30:02;;;;;;;8.43;4.95;;;;;;;4.62;62.70;101859.94;5122629;27;20039;-74
2022/04/02 09:32:49;;;;;;;8.85;3.63;;;;;;;4.53;62.03;101870.09;5135593;27;20024;-75
2022/04/02 09:35:53;;;;;;;8.25;4.15;;;;;;;4.38;62.82;101871.56;5126193;27;20032;-74
2022/04/02 09:38:43;;;;;;;14.20;5.03;;;;;;;4.46;62.65;101869.13;5091381;27;20548;-75
2022/04/02 09:41:17;;;;;;;6.80;4.90;;;;;;;4.50;62.36;101872.63;5114628;28;20104;-75
2022/04/02 09:44:01;;;;;;;11.55;5.07;;;;;;;4.35;61.30;101861.19;5114806;27;20164;-77
2022/04/02 09:46:48;;;;;;;7.63;4.38;;;;;;;4.07;63.05;101876.97;5114699;28;20064;-74
2022/04/02 09:49:41;;;;;;;7.43;4.40;;;;;;;3.95;64.55;101875.00;5130122;27;20066;-74
2022/04/02 09:52:08;;;;;;;7.50;4.67;;;;;;;4.11;63.60;101866.72;5135659;27;20110;-74
2022/04/02 09:54:48;;;;;;;7.05;4.07;;;;;;;4.27;62.78;101873.06;5134369;27;20027;-74
2022/04/02 09:57:22;;;;;;;6.60;3.97;;;;;;;4.56;61.32;101867.56;5118281;27;20454;-75
2022/04/02 10:00:02;;;;;;;8.52;3.92;;;;;;;4.85;60.62;101868.94;5103873;27;20024;-74
2022/04/02 10:02:50;;;;;;;9.07;4.72;;;;;;;5.20;62.82;101862.56;5114702;27;20036;-75
2022/04/02 10:05:22;;;;;;;8.55;4.35;;;;;;;5.53;60.43;101860.47;5114298;27;20460;-75
2022/04/02 10:08:13;;;;;;;6.32;4.47;;;;;;;5.64;60.20;101870.97;5126432;27;20079;-75
2022/04/02 10:10:41;;;;;;;7.47;4.28;;;;;;;5.58;58.15;101863.09;5116105;27;20106;-75
2022/04/02 10:13:08;;;;;;;10.68;4.32;;;;;;;5.62;59.40;101862.28;5114569;27;20028;-75
2022/04/02 10:15:40;;;;;;;6.35;4.15;;;;;;;5.76;57.82;101858.19;5114358;27;20062;-75
2022/04/02 10:18:10;;;;;;;5.97;4.00;;;;;;;6.24;58.15;101853.56;5114602;28;20031;-75
2022/04/02 10:20:36;;;;;;;6.07;3.63;;;;;;;6.53;55.44;101865.09;5115535;27;20037;-75
2022/04/02 10:23:12;;;;;;;7.25;4.40;;;;;;;6.67;56.19;101852.28;5113648;27;20031;-74
2022/04/02 10:25:57;;;;;;;9.02;4.30;;;;;;;6.87;55.11;101859.38;5115359;27;20032;-74
2022/04/02 10:28:30;;;;;;;7.57;3.90;;;;;;;6.69;54.46;101840.19;5117292;27;20041;-75
2022/04/02 10:30:57;;;;;;;6.55;4.10;;;;;;;6.34;54.18;101852.81;5118143;27;20035;-74
2022/04/02 10:33:27;;;;;;;9.30;4.70;;;;;;;5.91;55.05;101846.28;5132798;27;20461;-74
2022/04/02 10:35:54;;;;;;;7.20;3.70;;;;;;;5.49;54.08;101842.28;5107329;27;20059;-75
2022/04/02 10:38:40;;;;;;;7.22;3.65;;;;;;;5.02;55.61;101850.25;5105385;27;20019;-76
2022/04/02 10:41:11;;;;;;;6.20;3.80;;;;;;;4.65;56.85;101857.41;5109556;27;20387;-75
2022/04/02 10:43:49;;;;;;;7.13;4.18;;;;;;;4.47;60.88;101858.78;5103537;27;20038;-75
2022/04/02 10:46:20;;;;;;;5.97;3.97;;;;;;;4.19;62.74;101859.16;5102520;28;20043;-75
2022/04/02 10:48:57;;;;;;;6.00;3.72;;;;;;;4.02;65.00;101866.53;5104304;27;20054;-75
2022/04/02 10:51:27;;;;;;;6.63;4.10;;;;;;;3.87;64.26;101869.69;5104973;27;20054;-75
2022/04/02 10:54:28;;;;;;;6.57;4.45;;;;;;;3.69;64.76;101869.31;5104275;27;20024;-74
2022/04/02 10:56:55;;;;;;;7.13;4.43;;;;;;;3.42;66.67;101864.44;5099723;27;20039;-75
2022/04/02 10:59:21;;;;;;;7.60;4.32;;;;;;;3.39;66.04;101865.22;5113856;27;20107;-76
2022/04/02 11:01:52;;;;;;;7.43;4.25;;;;;;;3.46;66.78;101866.22;5114629;27;20451;-75
2022/04/02 11:04:26;;;;;;;5.32;4.20;;;;;;;3.57;66.16;101863.91;5112548;28;20046;-75
2022/04/02 11:06:51;;;;;;;7.05;4.13;;;;;;;3.60;65.29;101861.41;5113245;28;20491;-76
2022/04/02 11:09:27;;;;;;;7.75;4.63;;;;;;;3.64;65.21;101876.09;5114256;27;20024;-75
2022/04/02 11:11:53;;;;;;;6.35;3.90;;;;;;;3.62;64.25;101873.47;5112646;28;20036;-75
2022/04/02 11:14:20;;;;;;;5.88;4.15;;;;;;;3.65;66.35;101864.94;5118430;27;20031;-74
2022/04/02 11:16:46;;;;;;;6.45;4.10;;;;;;;3.74;66.22;101862.56;5112763;28;20471;-75
2022/04/02 11:22:22;;;;;;;7.00;4.03;;;;;;;4.04;64.14;101853.69;5092615;28;20398;-75
2022/04/02 11:24:59;;;;;;;5.95;3.67;;;;;;;4.15;62.88;101852.16;5119191;27;20031;-75
2022/04/02 11:27:27;;;;;;;8.85;4.60;;;;;;;4.37;63.58;101849.16;5118284;27;20016;-75
2022/04/02 11:29:57;;;;;;;8.65;3.85;;;;;;;4.53;62.02;101849.44;5112741;28;20035;-75
2022/04/02 11:32:25;;;;;;;6.35;3.92;;;;;;;4.62;60.33;101849.59;5111830;28;20035;-75
2022/04/02 11:34:51;;;;;;;8.10;4.10;;;;;;;4.86;60.50;101851.72;5112681;28;20524;-75
2022/04/02 11:37:24;;;;;;;5.47;3.75;;;;;;;5.24;58.83;101851.44;5112564;28;20379;-75
2022/04/02 11:39:53;;;;;;;7.82;3.80;;;;;;;5.62;57.50;101849.34;5112200;28;20027;-75
2022/04/02 11:42:25;;;;;;;5.07;3.67;;;;;;;5.69;55.94;101851.19;5112699;28;20384;-75
2022/04/02 11:44:52;;;;;;;4.88;3.70;;;;;;;5.51;56.24;101863.88;5112494;28;20534;-75
2022/04/02 11:47:27;;;;;;;6.95;3.25;;;;;;;5.12;56.10;101862.44;5111419;28;20023;-75